sensor_id;sensor_type;location;lat;lon;timestamp;temperature;humidity
74155;DHT22;62509;46.248;6.018;2023-07-13T00:04:25;21.50;53.30
74155;DHT22;62509;46.248;6.018;2023-07-13T00:09:28;21.70;52.50
74155;DHT22;62509;46.248;6.018;2023-07-13T00:14:33;21.70;51.10
74155;DHT22;62509;46.248;6.018;2023-07-13T00:19:36;21.70;54.00
74155;DHT22;62509;46.248;6.018;2023-07-13T00:24:39;21.70;55.30
74155;DHT22;62509;46.248;6.018;2023-07-13T00:29:44;21.30;56.40
74155;DHT22;62509;46.248;6.018;2023-07-13T00:34:48;21.20;57.10
74155;DHT22;62509;46.248;6.018;2023-07-13T00:39:51;21.30;56.70
74155;DHT22;62509;46.248;6.018;2023-07-13T00:45:03;21.30;57.20
74155;DHT22;62509;46.248;6.018;2023-07-13T00:50:08;21.40;54.00
74155;DHT22;62509;46.248;6.018;2023-07-13T00:55:14;21.40;52.80
74155;DHT22;62509;46.248;6.018;2023-07-13T01:00:19;21.50;52.60
74155;DHT22;62509;46.248;6.018;2023-07-13T01:05:23;21.80;51.20
74155;DHT22;62509;46.248;6.018;2023-07-13T01:10:28;21.60;51.40
74155;DHT22;62509;46.248;6.018;2023-07-13T01:15:37;21.80;50.40
74155;DHT22;62509;46.248;6.018;2023-07-13T01:20:46;21.80;50.60
74155;DHT22;62509;46.248;6.018;2023-07-13T01:25:53;21.90;49.60
74155;DHT22;62509;46.248;6.018;2023-07-13T01:30:57;21.80;50.90
74155;DHT22;62509;46.248;6.018;2023-07-13T01:36:03;21.80;51.60
74155;DHT22;62509;46.248;6.018;2023-07-13T01:41:06;21.80;50.50
74155;DHT22;62509;46.248;6.018;2023-07-13T01:46:10;21.80;51.50
74155;DHT22;62509;46.248;6.018;2023-07-13T01:51:26;21.70;52.80
74155;DHT22;62509;46.248;6.018;2023-07-13T01:56:29;21.70;52.70
74155;DHT22;62509;46.248;6.018;2023-07-13T02:01:32;21.70;50.00
74155;DHT22;62509;46.248;6.018;2023-07-13T02:06:37;21.80;49.00
74155;DHT22;62509;46.248;6.018;2023-07-13T02:11:40;21.90;48.10
74155;DHT22;62509;46.248;6.018;2023-07-13T02:16:44;21.90;48.60
74155;DHT22;62509;46.248;6.018;2023-07-13T02:21:48;21.90;50.90
74155;DHT22;62509;46.248;6.018;2023-07-13T02:26:52;21.80;53.20
74155;DHT22;62509;46.248;6.018;2023-07-13T02:31:55;21.60;55.00
74155;DHT22;62509;46.248;6.018;2023-07-13T02:37:00;21.40;55.60
74155;DHT22;62509;46.248;6.018;2023-07-13T02:42:03;21.30;56.10
74155;DHT22;62509;46.248;6.018;2023-07-13T02:47:07;21.40;55.50
74155;DHT22;62509;46.248;6.018;2023-07-13T02:52:12;21.40;55.50
74155;DHT22;62509;46.248;6.018;2023-07-13T02:57:15;21.40;55.40
74155;DHT22;62509;46.248;6.018;2023-07-13T03:02:19;21.40;55.40
74155;DHT22;62509;46.248;6.018;2023-07-13T03:07:23;21.30;55.20
74155;DHT22;62509;46.248;6.018;2023-07-13T03:12:27;21.30;54.50
74155;DHT22;62509;46.248;6.018;2023-07-13T03:17:31;21.30;54.10
74155;DHT22;62509;46.248;6.018;2023-07-13T03:22:35;21.30;55.30
74155;DHT22;62509;46.248;6.018;2023-07-13T03:27:39;21.30;56.70
74155;DHT22;62509;46.248;6.018;2023-07-13T03:32:42;21.20;56.00
74155;DHT22;62509;46.248;6.018;2023-07-13T03:37:47;20.90;59.60
74155;DHT22;62509;46.248;6.018;2023-07-13T03:42:50;20.80;61.30
74155;DHT22;62509;46.248;6.018;2023-07-13T03:47:53;20.90;60.50
74155;DHT22;62509;46.248;6.018;2023-07-13T03:52:59;20.80;62.30
74155;DHT22;62509;46.248;6.018;2023-07-13T04:03:32;20.80;64.30
74155;DHT22;62509;46.248;6.018;2023-07-13T04:08:38;20.70;65.70
74155;DHT22;62509;46.248;6.018;2023-07-13T04:13:41;21.00;61.70
74155;DHT22;62509;46.248;6.018;2023-07-13T04:18:44;21.00;61.30
74155;DHT22;62509;46.248;6.018;2023-07-13T04:23:49;21.00;61.00
74155;DHT22;62509;46.248;6.018;2023-07-13T04:28:53;20.90;61.20
74155;DHT22;62509;46.248;6.018;2023-07-13T04:33:56;20.70;61.40
74155;DHT22;62509;46.248;6.018;2023-07-13T04:39:00;20.50;61.90
74155;DHT22;62509;46.248;6.018;2023-07-13T04:44:04;20.50;62.00
74155;DHT22;62509;46.248;6.018;2023-07-13T04:49:07;20.50;60.60
74155;DHT22;62509;46.248;6.018;2023-07-13T04:54:12;20.50;61.20
74155;DHT22;62509;46.248;6.018;2023-07-13T04:59:15;20.50;62.00
74155;DHT22;62509;46.248;6.018;2023-07-13T05:04:20;20.00;64.50
74155;DHT22;62509;46.248;6.018;2023-07-13T05:09:25;19.40;64.70
74155;DHT22;62509;46.248;6.018;2023-07-13T05:14:28;19.30;66.60
74155;DHT22;62509;46.248;6.018;2023-07-13T05:19:32;19.50;64.50
74155;DHT22;62509;46.248;6.018;2023-07-13T05:24:37;19.30;65.50
74155;DHT22;62509;46.248;6.018;2023-07-13T05:29:40;19.40;67.20
74155;DHT22;62509;46.248;6.018;2023-07-13T05:34:43;19.40;67.50
74155;DHT22;62509;46.248;6.018;2023-07-13T05:39:49;19.70;66.30
74155;DHT22;62509;46.248;6.018;2023-07-13T05:44:53;19.60;65.60
74155;DHT22;62509;46.248;6.018;2023-07-13T05:49:56;20.20;61.90
74155;DHT22;62509;46.248;6.018;2023-07-13T05:55:01;21.70;58.10
74155;DHT22;62509;46.248;6.018;2023-07-13T06:00:05;21.30;58.20
74155;DHT22;62509;46.248;6.018;2023-07-13T06:05:09;21.10;58.50
74155;DHT22;62509;46.248;6.018;2023-07-13T06:10:14;20.60;60.10
74155;DHT22;62509;46.248;6.018;2023-07-13T06:15:17;20.40;60.00
74155;DHT22;62509;46.248;6.018;2023-07-13T06:20:21;20.50;60.30
74155;DHT22;62509;46.248;6.018;2023-07-13T06:25:25;20.90;60.80
74155;DHT22;62509;46.248;6.018;2023-07-13T06:30:29;21.30;59.40
74155;DHT22;62509;46.248;6.018;2023-07-13T06:35:33;22.30;53.80
74155;DHT22;62509;46.248;6.018;2023-07-13T06:40:38;23.10;50.60
74155;DHT22;62509;46.248;6.018;2023-07-13T06:45:44;21.90;51.30
74155;DHT22;62509;46.248;6.018;2023-07-13T06:50:49;21.90;53.20
74155;DHT22;62509;46.248;6.018;2023-07-13T06:55:54;22.20;50.90
74155;DHT22;62509;46.248;6.018;2023-07-13T07:00:57;22.10;50.70
74155;DHT22;62509;46.248;6.018;2023-07-13T07:06:01;22.90;50.10
74155;DHT22;62509;46.248;6.018;2023-07-13T07:11:07;22.90;48.50
74155;DHT22;62509;46.248;6.018;2023-07-13T07:16:12;23.40;48.20
74155;DHT22;62509;46.248;6.018;2023-07-13T07:21:15;23.30;48.40
74155;DHT22;62509;46.248;6.018;2023-07-13T07:26:20;23.60;47.70
74155;DHT22;62509;46.248;6.018;2023-07-13T07:31:28;23.70;46.40
74155;DHT22;62509;46.248;6.018;2023-07-13T07:36:34;23.70;46.50
74155;DHT22;62509;46.248;6.018;2023-07-13T07:41:42;23.70;47.10
74155;DHT22;62509;46.248;6.018;2023-07-13T07:46:56;23.90;47.50
74155;DHT22;62509;46.248;6.018;2023-07-13T07:52:00;24.00;47.70
74155;DHT22;62509;46.248;6.018;2023-07-13T07:57:05;24.10;44.50
74155;DHT22;62509;46.248;6.018;2023-07-13T08:02:12;24.10;46.70
74155;DHT22;62509;46.248;6.018;2023-07-13T08:07:36;23.90;47.40
74155;DHT22;62509;46.248;6.018;2023-07-13T08:12:41;23.60;46.90
74155;DHT22;62509;46.248;6.018;2023-07-13T08:18:04;23.60;47.70
74155;DHT22;62509;46.248;6.018;2023-07-13T08:23:08;24.10;45.30
74155;DHT22;62509;46.248;6.018;2023-07-13T08:28:14;24.30;45.00
74155;DHT22;62509;46.248;6.018;2023-07-13T08:33:17;24.10;45.10
74155;DHT22;62509;46.248;6.018;2023-07-13T08:38:22;24.30;44.00
74155;DHT22;62509;46.248;6.018;2023-07-13T08:43:27;24.40;43.80
74155;DHT22;62509;46.248;6.018;2023-07-13T08:48:33;23.90;44.90
74155;DHT22;62509;46.248;6.018;2023-07-13T08:53:40;24.40;43.50
74155;DHT22;62509;46.248;6.018;2023-07-13T08:58:48;24.60;43.20
74155;DHT22;62509;46.248;6.018;2023-07-13T09:03:57;24.30;41.70
74155;DHT22;62509;46.248;6.018;2023-07-13T09:09:10;24.50;41.90
74155;DHT22;62509;46.248;6.018;2023-07-13T09:14:28;24.40;41.70
74155;DHT22;62509;46.248;6.018;2023-07-13T09:19:37;24.60;41.70
74155;DHT22;62509;46.248;6.018;2023-07-13T09:24:41;24.40;41.10
74155;DHT22;62509;46.248;6.018;2023-07-13T09:29:57;24.20;41.60
74155;DHT22;62509;46.248;6.018;2023-07-13T09:35:09;24.40;41.00
74155;DHT22;62509;46.248;6.018;2023-07-13T09:40:16;24.70;39.60
74155;DHT22;62509;46.248;6.018;2023-07-13T09:45:27;24.70;39.10
74155;DHT22;62509;46.248;6.018;2023-07-13T09:50:32;25.00;37.40
74155;DHT22;62509;46.248;6.018;2023-07-13T09:55:36;25.10;35.70
74155;DHT22;62509;46.248;6.018;2023-07-13T10:00:42;25.10;36.20
74155;DHT22;62509;46.248;6.018;2023-07-13T10:05:47;25.50;34.50
74155;DHT22;62509;46.248;6.018;2023-07-13T10:10:53;25.40;35.50
74155;DHT22;62509;46.248;6.018;2023-07-13T10:16:02;25.50;33.30
74155;DHT22;62509;46.248;6.018;2023-07-13T10:21:11;26.00;32.90
74155;DHT22;62509;46.248;6.018;2023-07-13T10:26:21;26.10;32.70
74155;DHT22;62509;46.248;6.018;2023-07-13T10:31:27;25.90;32.70
74155;DHT22;62509;46.248;6.018;2023-07-13T10:36:31;25.60;33.90
74155;DHT22;62509;46.248;6.018;2023-07-13T10:41:38;25.70;33.20
74155;DHT22;62509;46.248;6.018;2023-07-13T10:46:43;25.90;31.80
74155;DHT22;62509;46.248;6.018;2023-07-13T10:51:47;25.60;31.20
74155;DHT22;62509;46.248;6.018;2023-07-13T10:56:52;24.70;33.00
74155;DHT22;62509;46.248;6.018;2023-07-13T11:01:58;24.40;34.80
74155;DHT22;62509;46.248;6.018;2023-07-13T11:07:18;24.70;35.50
74155;DHT22;62509;46.248;6.018;2023-07-13T11:12:27;24.30;36.10
74155;DHT22;62509;46.248;6.018;2023-07-13T11:17:37;24.40;36.60
74155;DHT22;62509;46.248;6.018;2023-07-13T11:22:50;24.00;33.90
74155;DHT22;62509;46.248;6.018;2023-07-13T11:28:04;24.20;34.70
74155;DHT22;62509;46.248;6.018;2023-07-13T11:33:22;24.50;33.40
74155;DHT22;62509;46.248;6.018;2023-07-13T11:38:28;24.30;33.50
74155;DHT22;62509;46.248;6.018;2023-07-13T11:43:35;24.70;33.10
74155;DHT22;62509;46.248;6.018;2023-07-13T11:48:41;24.50;32.70
74155;DHT22;62509;46.248;6.018;2023-07-13T11:53:46;24.30;33.30
74155;DHT22;62509;46.248;6.018;2023-07-13T11:58:51;24.50;32.00
74155;DHT22;62509;46.248;6.018;2023-07-13T12:03:58;24.40;31.10
74155;DHT22;62509;46.248;6.018;2023-07-13T12:09:03;24.70;30.40
74155;DHT22;62509;46.248;6.018;2023-07-13T12:14:15;25.10;29.40
74155;DHT22;62509;46.248;6.018;2023-07-13T12:19:22;25.20;29.50
74155;DHT22;62509;46.248;6.018;2023-07-13T12:24:26;25.60;28.50
74155;DHT22;62509;46.248;6.018;2023-07-13T12:29:30;25.50;27.60
74155;DHT22;62509;46.248;6.018;2023-07-13T12:34:49;25.70;27.80
74155;DHT22;62509;46.248;6.018;2023-07-13T12:39:54;26.10;27.70
74155;DHT22;62509;46.248;6.018;2023-07-13T12:44:59;26.00;27.50
74155;DHT22;62509;46.248;6.018;2023-07-13T12:50:14;26.40;27.90
74155;DHT22;62509;46.248;6.018;2023-07-13T12:55:19;26.50;27.50
74155;DHT22;62509;46.248;6.018;2023-07-13T13:00:27;27.00;27.30
74155;DHT22;62509;46.248;6.018;2023-07-13T13:05:32;27.10;26.40
74155;DHT22;62509;46.248;6.018;2023-07-13T13:10:36;27.10;25.60
74155;DHT22;62509;46.248;6.018;2023-07-13T13:15:40;26.90;25.30
74155;DHT22;62509;46.248;6.018;2023-07-13T13:20:44;26.80;25.00
74155;DHT22;62509;46.248;6.018;2023-07-13T13:25:48;27.10;25.10
74155;DHT22;62509;46.248;6.018;2023-07-13T13:30:53;27.40;24.90
74155;DHT22;62509;46.248;6.018;2023-07-13T13:35:58;27.50;25.50
74155;DHT22;62509;46.248;6.018;2023-07-13T13:41:01;27.70;25.20
74155;DHT22;62509;46.248;6.018;2023-07-13T13:46:09;27.30;25.10
74155;DHT22;62509;46.248;6.018;2023-07-13T13:51:19;27.40;25.30
74155;DHT22;62509;46.248;6.018;2023-07-13T13:56:23;27.40;23.60
74155;DHT22;62509;46.248;6.018;2023-07-13T14:01:27;27.30;25.80
74155;DHT22;62509;46.248;6.018;2023-07-13T14:06:34;26.90;26.20
74155;DHT22;62509;46.248;6.018;2023-07-13T14:11:38;26.70;26.80
74155;DHT22;62509;46.248;6.018;2023-07-13T14:16:43;26.00;26.30
74155;DHT22;62509;46.248;6.018;2023-07-13T14:21:49;25.90;26.60
74155;DHT22;62509;46.248;6.018;2023-07-13T14:26:55;25.70;27.90
74155;DHT22;62509;46.248;6.018;2023-07-13T14:31:59;25.80;26.80
74155;DHT22;62509;46.248;6.018;2023-07-13T14:37:04;26.00;26.40
74155;DHT22;62509;46.248;6.018;2023-07-13T14:42:09;26.10;24.80
74155;DHT22;62509;46.248;6.018;2023-07-13T14:47:15;25.60;24.90
74155;DHT22;62509;46.248;6.018;2023-07-13T14:52:21;25.40;25.40
74155;DHT22;62509;46.248;6.018;2023-07-13T14:57:28;25.60;24.40
74155;DHT22;62509;46.248;6.018;2023-07-13T15:02:33;26.00;24.70
74155;DHT22;62509;46.248;6.018;2023-07-13T15:07:38;26.10;23.50
74155;DHT22;62509;46.248;6.018;2023-07-13T15:12:42;26.10;23.80
74155;DHT22;62509;46.248;6.018;2023-07-13T15:17:46;25.90;23.40
74155;DHT22;62509;46.248;6.018;2023-07-13T15:22:52;26.20;23.90
74155;DHT22;62509;46.248;6.018;2023-07-13T15:27:56;26.00;22.90
74155;DHT22;62509;46.248;6.018;2023-07-13T15:33:01;26.10;22.90
74155;DHT22;62509;46.248;6.018;2023-07-13T15:38:15;26.00;23.30
74155;DHT22;62509;46.248;6.018;2023-07-13T15:43:19;26.00;23.30
74155;DHT22;62509;46.248;6.018;2023-07-13T15:48:23;26.10;22.70
74155;DHT22;62509;46.248;6.018;2023-07-13T15:53:30;26.10;23.00
74155;DHT22;62509;46.248;6.018;2023-07-13T15:58:34;26.20;23.20
74155;DHT22;62509;46.248;6.018;2023-07-13T16:03:37;26.30;22.30
74155;DHT22;62509;46.248;6.018;2023-07-13T16:08:42;26.20;23.00
74155;DHT22;62509;46.248;6.018;2023-07-13T16:13:46;26.30;23.40
74155;DHT22;62509;46.248;6.018;2023-07-13T16:18:53;26.10;22.90
74155;DHT22;62509;46.248;6.018;2023-07-13T16:23:58;26.50;22.60
74155;DHT22;62509;46.248;6.018;2023-07-13T16:29:10;26.10;23.30
74155;DHT22;62509;46.248;6.018;2023-07-13T16:34:15;25.90;24.00
74155;DHT22;62509;46.248;6.018;2023-07-13T16:39:19;25.70;23.90
74155;DHT22;62509;46.248;6.018;2023-07-13T16:44:25;25.70;23.90
74155;DHT22;62509;46.248;6.018;2023-07-13T16:49:30;25.80;24.10
74155;DHT22;62509;46.248;6.018;2023-07-13T16:54:38;25.60;24.60
74155;DHT22;62509;46.248;6.018;2023-07-13T16:59:41;25.60;24.80
74155;DHT22;62509;46.248;6.018;2023-07-13T17:04:47;25.70;25.20
74155;DHT22;62509;46.248;6.018;2023-07-13T17:09:52;25.70;24.70
74155;DHT22;62509;46.248;6.018;2023-07-13T17:14:56;25.50;25.10
74155;DHT22;62509;46.248;6.018;2023-07-13T17:20:02;25.30;25.30
74155;DHT22;62509;46.248;6.018;2023-07-13T17:25:10;25.40;25.70
74155;DHT22;62509;46.248;6.018;2023-07-13T17:30:15;25.40;25.30
74155;DHT22;62509;46.248;6.018;2023-07-13T17:35:23;25.50;25.10
74155;DHT22;62509;46.248;6.018;2023-07-13T17:40:29;25.60;25.00
74155;DHT22;62509;46.248;6.018;2023-07-13T17:45:34;25.40;25.60
74155;DHT22;62509;46.248;6.018;2023-07-13T17:50:38;25.50;25.30
74155;DHT22;62509;46.248;6.018;2023-07-13T17:55:47;25.30;25.60
74155;DHT22;62509;46.248;6.018;2023-07-13T18:00:53;25.30;25.90
74155;DHT22;62509;46.248;6.018;2023-07-13T18:05:56;25.00;25.80
74155;DHT22;62509;46.248;6.018;2023-07-13T18:11:01;25.10;26.10
74155;DHT22;62509;46.248;6.018;2023-07-13T18:16:10;25.20;25.90
74155;DHT22;62509;46.248;6.018;2023-07-13T18:21:17;25.40;25.60
74155;DHT22;62509;46.248;6.018;2023-07-13T18:26:23;25.50;25.00
74155;DHT22;62509;46.248;6.018;2023-07-13T18:31:30;25.10;26.80
74155;DHT22;62509;46.248;6.018;2023-07-13T18:36:36;24.60;28.50
74155;DHT22;62509;46.248;6.018;2023-07-13T18:41:42;24.40;28.80
74155;DHT22;62509;46.248;6.018;2023-07-13T18:46:47;24.20;28.90
74155;DHT22;62509;46.248;6.018;2023-07-13T18:51:50;23.90;29.80
74155;DHT22;62509;46.248;6.018;2023-07-13T18:56:55;23.30;31.90
74155;DHT22;62509;46.248;6.018;2023-07-13T19:01:58;23.30;32.10
74155;DHT22;62509;46.248;6.018;2023-07-13T19:07:01;23.10;33.10
74155;DHT22;62509;46.248;6.018;2023-07-13T19:12:12;23.10;35.00
74155;DHT22;62509;46.248;6.018;2023-07-13T19:17:19;23.00;35.10
74155;DHT22;62509;46.248;6.018;2023-07-13T19:22:22;22.90;35.30
74155;DHT22;62509;46.248;6.018;2023-07-13T19:27:27;22.80;35.60
74155;DHT22;62509;46.248;6.018;2023-07-13T19:32:31;22.50;38.40
74155;DHT22;62509;46.248;6.018;2023-07-13T19:37:34;22.00;39.40
74155;DHT22;62509;46.248;6.018;2023-07-13T19:42:41;21.60;40.10
74155;DHT22;62509;46.248;6.018;2023-07-13T19:47:44;21.20;39.50
74155;DHT22;62509;46.248;6.018;2023-07-13T19:52:48;21.10;42.90
74155;DHT22;62509;46.248;6.018;2023-07-13T19:57:54;21.30;41.20
74155;DHT22;62509;46.248;6.018;2023-07-13T20:02:58;20.90;39.60
74155;DHT22;62509;46.248;6.018;2023-07-13T20:08:02;20.80;40.40
74155;DHT22;62509;46.248;6.018;2023-07-13T20:13:13;20.80;42.10
74155;DHT22;62509;46.248;6.018;2023-07-13T20:18:17;21.00;40.90
74155;DHT22;62509;46.248;6.018;2023-07-13T20:23:21;20.90;41.80
74155;DHT22;62509;46.248;6.018;2023-07-13T20:28:28;20.90;42.50
74155;DHT22;62509;46.248;6.018;2023-07-13T20:33:32;20.70;43.70
74155;DHT22;62509;46.248;6.018;2023-07-13T20:38:36;20.70;44.30
74155;DHT22;62509;46.248;6.018;2023-07-13T20:43:40;20.50;43.40
74155;DHT22;62509;46.248;6.018;2023-07-13T20:48:44;20.50;43.90
74155;DHT22;62509;46.248;6.018;2023-07-13T20:53:52;20.40;44.50
74155;DHT22;62509;46.248;6.018;2023-07-13T20:58:57;20.30;45.00
74155;DHT22;62509;46.248;6.018;2023-07-13T21:04:02;20.50;45.60
74155;DHT22;62509;46.248;6.018;2023-07-13T21:09:08;20.20;46.40
74155;DHT22;62509;46.248;6.018;2023-07-13T21:14:18;20.20;47.00
74155;DHT22;62509;46.248;6.018;2023-07-13T21:19:25;20.10;47.20
74155;DHT22;62509;46.248;6.018;2023-07-13T21:24:30;19.90;47.70
74155;DHT22;62509;46.248;6.018;2023-07-13T21:29:34;19.80;48.70
74155;DHT22;62509;46.248;6.018;2023-07-13T21:34:38;19.60;47.90
74155;DHT22;62509;46.248;6.018;2023-07-13T21:39:41;19.40;48.20
74155;DHT22;62509;46.248;6.018;2023-07-13T21:44:52;19.50;48.50
74155;DHT22;62509;46.248;6.018;2023-07-13T21:49:56;19.50;49.70
74155;DHT22;62509;46.248;6.018;2023-07-13T21:54:59;19.10;50.30
74155;DHT22;62509;46.248;6.018;2023-07-13T22:00:04;19.10;48.30
74155;DHT22;62509;46.248;6.018;2023-07-13T22:05:11;19.00;50.50
74155;DHT22;62509;46.248;6.018;2023-07-13T22:10:16;19.10;50.40
74155;DHT22;62509;46.248;6.018;2023-07-13T22:15:21;19.20;50.20
74155;DHT22;62509;46.248;6.018;2023-07-13T22:20:29;18.70;52.30
74155;DHT22;62509;46.248;6.018;2023-07-13T22:25:33;18.60;53.00
74155;DHT22;62509;46.248;6.018;2023-07-13T22:30:37;18.60;52.60
74155;DHT22;62509;46.248;6.018;2023-07-13T22:35:41;18.60;52.90
74155;DHT22;62509;46.248;6.018;2023-07-13T22:40:44;18.70;52.50
74155;DHT22;62509;46.248;6.018;2023-07-13T22:45:49;18.60;53.20
74155;DHT22;62509;46.248;6.018;2023-07-13T22:50:53;18.50;52.30
74155;DHT22;62509;46.248;6.018;2023-07-13T22:55:57;18.60;53.10
74155;DHT22;62509;46.248;6.018;2023-07-13T23:01:01;18.60;52.70
74155;DHT22;62509;46.248;6.018;2023-07-13T23:06:17;18.50;52.80
74155;DHT22;62509;46.248;6.018;2023-07-13T23:11:22;18.50;52.80
74155;DHT22;62509;46.248;6.018;2023-07-13T23:16:28;18.40;53.60
74155;DHT22;62509;46.248;6.018;2023-07-13T23:21:32;18.00;55.10
74155;DHT22;62509;46.248;6.018;2023-07-13T23:26:35;18.10;54.90
74155;DHT22;62509;46.248;6.018;2023-07-13T23:31:40;18.20;55.10
74155;DHT22;62509;46.248;6.018;2023-07-13T23:36:44;18.00;55.70
74155;DHT22;62509;46.248;6.018;2023-07-13T23:41:47;17.90;56.50
74155;DHT22;62509;46.248;6.018;2023-07-13T23:46:52;17.70;56.80
74155;DHT22;62509;46.248;6.018;2023-07-13T23:51:57;17.40;58.10
74155;DHT22;62509;46.248;6.018;2023-07-13T23:57:02;17.20;58.70
